Flight Track Log - Related Links

Times and Time Zones

All times are in EDT time to prevent confusion due to time zone crossing. See the EJA101 flight status page for this flight to view local times or setup timezone preferences in your user account.

Time Position Orientation Groundspeed Altitude Reporting Facility
EDT Latitude Longitude Course Direction KTS MPH feet Rate Location/Type
Fri 05:32:55 PM 38.9167 -77.5000 284° West 252 290 3,100  Level Potomac TRACON
Fri 05:33:49 PM 38.9333 -77.5833 284° West 280 322 3,800 2,765 Climbing Potomac TRACON
Fri 05:34:50 PM 39.0000 -77.6167 339° North 286 329 8,400 2,579 Climbing Potomac TRACON
Fri 05:35:50 PM 39.0667 -77.5667 30° Northeast 302 348 9,000 300 Climbing Potomac TRACON
Fri 05:36:50 PM 39.1333 -77.5000 38° Northeast 291 335 9,000  Level Potomac TRACON
Fri 05:37:50 PM 39.2000 -77.4333 38° Northeast 285 328 9,000 397 Level Potomac TRACON
Fri 05:38:51 PM 39.2333 -77.3500 63° Northeast 282 325 9,800 1,571 Climbing Potomac TRACON
Fri 05:41:01 PM 39.3058 -77.1258 67° East 334 384 14,000 1,660 Climbing Washington Center
Fri 05:41:59 PM 39.3367 -77.0031 72° East 344 396 15,000 1,119 Climbing Washington Center
Fri 05:42:59 PM 39.3172 -76.8739 101° East 345 397 16,200 992 Climbing Washington Center
Fri 05:44:00 PM 39.3017 -76.7450 99° East 350 403 17,000 885 Climbing Washington Center
Fri 05:45:01 PM 39.2822 -76.6131 101° East 362 417 18,000 2,067 Climbing Washington Center
Fri 05:45:59 PM 39.2644 -76.4681 99° East 383 441 21,100 2,542 Climbing Washington Center
Fri 05:46:59 PM 39.2447 -76.3178 100° East 402 463 23,000 1,900 Climbing Washington Center
Fri 05:47:59 PM 39.2247 -76.1675 100° East 416 479 24,900 2,331 Climbing Washington Center
Fri 05:49:00 PM 39.2753 -76.0286 65° Northeast 421 484 27,700 2,508 Climbing Washington Center
Fri 05:50:01 PM 39.3817 -75.9433 32° Northeast 396 456 30,000 2,380 Climbing Washington Center
Fri 05:51:01 PM 39.4736 -75.8281 44° Northeast 421 484 32,500 1,525 Climbing Washington Center
Fri 05:51:59 PM 39.5511 -75.6883 54° Northeast 453 521 33,000 159 Climbing Washington Center
Fri 05:54:10 PM 39.7056 -75.4067 54° Northeast 436 502 33,000 -31 Level New York Center
Fri 05:55:11 PM 39.7883 -75.2608 54° Northeast 437 503 32,900  Descending New York Center
Fri 05:56:11 PM 39.8558 -75.1272 57° Northeast 467 537 33,000 50 Climbing New York Center
Fri 05:57:11 PM 39.9361 -74.9889 53° Northeast 480 552 33,000 -50 Level New York Center
Fri 05:58:10 PM 40.0094 -74.8578 54° Northeast 490 564 32,900  Descending New York Center
Fri 05:59:10 PM 40.0958 -74.7081 53° Northeast 476 548 33,000 50 Climbing New York Center
Fri 06:00:11 PM 40.1694 -74.5603 57° Northeast 476 548 33,000  Level New York Center
Fri 06:01:10 PM 40.2697 -74.4242 46° Northeast 475 547 33,000 -198 Level New York Center
Fri 06:02:12 PM 40.3608 -74.3011 46° Northeast 467 537 32,600 -1,664 Descending New York Center
Fri 06:03:09 PM 40.4011 -74.1394 72° East 455 524 29,700 -2,847 Descending New York Center
Fri 06:04:10 PM 40.4406 -73.9889 71° East 449 517 27,000 -2,777 Descending New York Center
Fri 06:05:10 PM 40.4800 -73.8406 71° East 438 504 24,100 -1,442 Descending New York Center
Fri 06:06:44 PM 40.5575 -73.6967 55° Northeast 409 471 23,300 -429 Descending Boston Center
Fri 06:07:44 PM 40.6667 -73.6003 34° Northeast 386 444 23,000 -150 Descending Boston Center
Fri 06:08:44 PM 40.7592 -73.5197 33° Northeast 391 450 23,000  Level Boston Center
Fri 06:09:44 PM 40.8517 -73.4444 32° Northeast 391 450 23,000  Level Boston Center
Fri 06:10:44 PM 40.9319 -73.3275 48° Northeast 381 438 23,000  Level Boston Center
Fri 06:11:44 PM 40.9931 -73.2044 57° Northeast 383 441 23,000  Level Boston Center
Fri 06:12:44 PM 41.0522 -73.0814 57° Northeast 393 452 23,000  Level Boston Center
Fri 06:13:44 PM 41.1133 -72.9581 57° Northeast 393 452 23,000  Level Boston Center
Fri 06:14:44 PM 41.1742 -72.8372 56° Northeast 393 452 23,000  Level Boston Center
Fri 06:15:44 PM 41.2331 -72.7161 57° Northeast 393 452 23,000  Level Boston Center
Fri 06:16:44 PM 41.2833 -72.5947 61° Northeast 401 461 23,000 -50 Level Boston Center
Fri 06:17:44 PM 41.3397 -72.4539 62° Northeast 401 461 22,900 -600 Descending Boston Center
Fri 06:18:44 PM 41.3833 -72.3322 64° Northeast 381 438 21,800 -1,200 Descending Boston Center
Fri 06:19:44 PM 41.4269 -72.2214 62° Northeast 357 411 20,500 -1,350 Descending Boston Center
Fri 06:20:44 PM 41.4725 -72.1050 62° Northeast 343 395 19,100 -1,350 Descending Boston Center
Fri 06:21:44 PM 41.5178 -71.9853 63° Northeast 349 402 17,800 -1,400 Descending Boston Center
Fri 06:22:44 PM 41.5569 -71.8825 63° Northeast 343 395 16,300 -1,500 Descending Boston Center
Fri 06:23:44 PM 41.6022 -71.7600 64° Northeast 343 395 14,800 -1,300 Descending Boston Center
Fri 06:24:44 PM 41.6369 -71.6650 64° Northeast 323 372 13,700 -1,150 Descending Boston Center
Fri 06:25:44 PM 41.6758 -71.5564 64° Northeast 289 333 12,500 -1,100 Descending Boston Center
Fri 06:26:44 PM 41.7086 -71.4781 61° Northeast 271 312 11,500 -800 Descending Boston Center
Fri 06:27:44 PM 41.7556 -71.3856 56° Northeast 260 299 10,900 -300 Descending Boston Center
Fri 06:28:44 PM 41.8050 -71.3206 44° Northeast 260 299 10,900 -250 Level Boston Center
Fri 06:29:44 PM 41.8647 -71.2497 41° Northeast 265 305 10,400 -1,250 Descending Boston Center
Fri 06:30:44 PM 41.9269 -71.2178 21° North 260 299 8,400 -2,000 Descending Boston Center
Fri 06:31:44 PM 42.0017 -71.1831 19° North 260 299 6,400 -1,800 Descending Boston Center
Fri 06:32:44 PM 42.0617 -71.1536 20° North 255 293 4,800 -1,150 Descending Boston Center
Fri 06:33:44 PM 42.1239 -71.1217 21° North 229 264 4,100 -400 Descending Boston Center
Fri 06:34:44 PM 42.1736 -71.0956 21° North 208 239 4,000 -600 Descending Boston Center
Fri 06:35:44 PM 42.2233 -71.0719 19° North 184 212 2,900 -985 Descending Boston Center
Fri 06:36:58 PM 42.2667 -71.0500 21° North 146 168 1,800 -761 Descending KA90
Fri 06:37:58 PM 42.3000 -71.0333 20° North 111 128 1,200 -650 Descending KA90
Fri 06:38:58 PM 42.3333 -71.0167 20° North 110 127 500 -700 Descending KA90
Fri 06:41:00 PM 42.3500 -71.0000 North  Level FlightAware Approximate

Login

Don't have an account? Register now (free) for customized features, flight alerts, and more!